Time;durP1;ratioP1;P1;durP2;ratioP2;P2;SDS_P1;SDS_P2;PMS_P1;PMS_P2;Temp;Humidity;BMP_temperature;BMP_pressure;BME280_temperature;BME280_humidity;BME280_pressure;Samples;Min_cycle;Max_cycle;Signal;HPM_P1;HPM_P2
2024/04/11 00:02:03;;;;;;;11.02;1.95;;;8.40;99.90;;;;;;5404014;26;19999;-83
2024/04/11 00:04:29;;;;;;;4.90;1.83;;;8.40;99.90;;;;;;5400414;26;20072;-83
2024/04/11 00:06:54;;;;;;;5.10;1.67;;;8.40;99.90;;;;;;5390518;26;20004;-84
2024/04/11 00:09:20;;;;;;;6.70;1.83;;;8.40;99.90;;;;;;5408412;26;20000;-83
2024/04/11 00:11:45;;;;;;;7.93;1.65;;;8.40;99.90;;;;;;5400249;26;20407;-83
2024/04/11 00:14:11;;;;;;;5.82;2.42;;;8.30;99.90;;;;;;5405169;26;20465;-83
2024/04/11 00:16:36;;;;;;;4.40;1.90;;;8.30;99.90;;;;;;5388148;26;20004;-83
2024/04/11 00:19:02;;;;;;;4.78;1.80;;;8.40;99.90;;;;;;5403687;26;20004;-84
2024/04/11 00:21:28;;;;;;;3.53;1.90;;;8.40;99.90;;;;;;5403926;26;20055;-84
2024/04/11 00:23:53;;;;;;;5.70;1.90;;;8.30;99.90;;;;;;5404495;26;20019;-83
2024/04/11 00:26:19;;;;;;;6.88;1.92;;;8.20;99.90;;;;;;5410929;26;20473;-83
2024/04/11 00:28:44;;;;;;;2.97;1.60;;;8.20;99.90;;;;;;5392968;26;20475;-82
2024/04/11 00:31:10;;;;;;;4.38;1.92;;;8.20;99.90;;;;;;5401454;26;19999;-83
2024/04/11 00:33:37;;;;;;;8.63;1.90;;;8.30;99.90;;;;;;5402366;26;20019;-84
2024/04/11 00:36:05;;;;;;;6.22;2.00;;;8.30;99.90;;;;;;5399092;26;20033;-82
2024/04/11 00:38:33;;;;;;;5.53;1.70;;;8.20;99.90;;;;;;5407202;26;20013;-83
2024/04/11 00:40:59;;;;;;;4.97;1.90;;;8.30;99.90;;;;;;5399753;26;20001;-84
2024/04/11 00:43:30;;;;;;;5.20;1.70;;;8.30;99.90;;;;;;5402897;26;19999;-83
2024/04/11 00:45:56;;;;;;;;;;;8.00;99.90;;;;;;5398106;26;19996;-83
2024/04/11 00:48:22;;;;;;;6.32;1.63;;;7.90;99.90;;;;;;5390131;26;20379;-83
2024/04/11 00:50:50;;;;;;;7.55;1.90;;;7.90;99.90;;;;;;5396254;26;20010;-83
2024/04/11 00:53:16;;;;;;;6.45;1.80;;;8.10;99.90;;;;;;5404732;26;20370;-84
2024/04/11 00:55:42;;;;;;;4.70;1.95;;;8.20;99.90;;;;;;5402400;26;20003;-83
2024/04/11 00:58:11;;;;;;;8.05;2.05;;;8.30;99.90;;;;;;5409488;26;20046;-83
2024/04/11 01:00:36;;;;;;;5.47;1.98;;;8.30;99.90;;;;;;5391265;26;19997;-83
2024/04/11 01:03:03;;;;;;;3.17;1.63;;;8.20;99.90;;;;;;5389207;26;20481;-84
2024/04/11 01:05:32;;;;;;;3.70;1.75;;;8.10;99.90;;;;;;5399791;26;19996;-82
2024/04/11 01:07:58;;;;;;;5.60;2.00;;;8.10;99.90;;;;;;5394650;26;20343;-83
2024/04/11 01:10:25;;;;;;;4.65;1.60;;;8.00;99.90;;;;;;5391429;26;19995;-83
2024/04/11 01:12:51;;;;;;;9.13;2.17;;;8.10;99.90;;;;;;5398317;26;20003;-84
2024/04/11 01:15:17;;;;;;;6.82;1.77;;;8.00;99.90;;;;;;5403957;26;20598;-83
2024/04/11 01:17:47;;;;;;;5.32;2.20;;;8.00;99.90;;;;;;5394266;26;20000;-82
2024/04/11 01:20:12;;;;;;;6.70;2.13;;;8.10;99.90;;;;;;5385429;26;20028;-83
2024/04/11 01:22:41;;;;;;;3.28;1.65;;;7.90;99.90;;;;;;5399084;26;20229;-84
2024/04/11 01:25:08;;;;;;;7.35;2.17;;;7.90;99.90;;;;;;5399881;26;19996;-83
2024/04/11 01:27:34;;;;;;;6.70;2.03;;;7.80;99.90;;;;;;5405202;26;20386;-83
2024/04/11 01:30:03;;;;;;;8.73;2.45;;;7.60;99.90;;;;;;5403981;26;19993;-82
2024/04/11 01:32:30;;;;;;;5.95;1.80;;;8.00;99.90;;;;;;5389232;26;20145;-83
2024/04/11 01:34:56;;;;;;;6.80;1.75;;;7.70;99.90;;;;;;5391898;26;20058;-83
2024/04/11 01:37:22;;;;;;;7.50;2.45;;;7.50;99.90;;;;;;5396455;26;20052;-83
2024/04/11 01:39:48;;;;;;;4.43;1.80;;;7.50;99.90;;;;;;5391892;26;20485;-83
2024/04/11 01:42:13;;;;;;;8.27;1.95;;;7.70;99.90;;;;;;5385687;26;20000;-82
2024/04/11 01:44:39;;;;;;;5.90;1.83;;;7.80;99.90;;;;;;5408528;26;20014;-84
2024/04/11 01:47:05;;;;;;;7.53;1.70;;;7.70;99.90;;;;;;5404328;26;19999;-83
2024/04/11 01:49:31;;;;;;;6.65;2.30;;;7.70;99.90;;;;;;5395851;26;20011;-83
2024/04/11 01:51:57;;;;;;;8.32;1.90;;;7.80;99.90;;;;;;5395046;26;20020;-83
2024/04/11 01:54:23;;;;;;;5.28;1.75;;;7.80;99.90;;;;;;5397142;26;20076;-84
2024/04/11 01:56:49;;;;;;;3.38;1.65;;;7.80;99.90;;;;;;5404312;26;20338;-82
2024/04/11 01:59:16;;;;;;;5.53;2.00;;;7.80;99.90;;;;;;5401470;26;20057;-83
2024/04/11 02:01:42;;;;;;;9.82;2.22;;;7.60;99.90;;;;;;5399532;26;19996;-82
2024/04/11 02:04:09;;;;;;;7.47;2.95;;;7.80;99.90;;;;;;5384192;26;20342;-83
2024/04/11 02:06:39;;;;;;;12.45;1.83;;;7.70;99.90;;;;;;5385948;26;20014;-83
2024/04/11 02:09:09;;;;;;;4.47;1.92;;;7.90;99.90;;;;;;5397686;26;20027;-82
2024/04/11 02:11:42;;;;;;;;;;;7.70;99.90;;;;;;5391629;26;20015;-83
2024/04/11 02:14:08;;;;;;;7.10;2.60;;;7.60;99.90;;;;;;5386014;26;20013;-83
2024/04/11 02:16:35;;;;;;;5.05;2.10;;;7.60;99.90;;;;;;5407761;26;20004;-83
2024/04/11 02:19:06;;;;;;;7.72;3.08;;;7.70;99.90;;;;;;5397241;26;20003;-84
2024/04/11 02:21:36;;;;;;;;;;;7.80;99.90;;;;;;5402917;26;19999;-84
2024/04/11 02:24:02;;;;;;;8.15;2.42;;;7.80;99.90;;;;;;5410070;26;19940;-84
2024/04/11 02:26:28;;;;;;;5.65;2.05;;;7.80;99.90;;;;;;5390996;26;20082;-84
2024/04/11 02:28:55;;;;;;;6.57;2.55;;;7.90;99.90;;;;;;5390147;26;20000;-83
2024/04/11 02:31:21;;;;;;;5.97;1.98;;;7.90;99.90;;;;;;5390308;26;20012;-83
2024/04/11 02:33:46;;;;;;;3.08;2.15;;;7.60;99.90;;;;;;5393238;26;20395;-83
2024/04/11 02:36:12;;;;;;;6.63;2.33;;;7.50;99.90;;;;;;5397014;26;19997;-83
2024/04/11 02:38:38;;;;;;;10.02;2.67;;;7.70;99.90;;;;;;5385979;26;20007;-83
2024/04/11 02:41:06;;;;;;;6.88;2.35;;;7.60;99.90;;;;;;5406110;26;20015;-82
2024/04/11 02:43:33;;;;;;;5.53;2.17;;;7.50;99.90;;;;;;5394480;26;20001;-83
2024/04/11 02:45:59;;;;;;;6.30;2.08;;;7.40;99.90;;;;;;5400217;26;20523;-83
2024/04/11 02:48:26;;;;;;;5.82;2.00;;;7.40;99.90;;;;;;5395393;26;20015;-83
2024/04/11 02:50:52;;;;;;;5.88;2.30;;;7.60;99.90;;;;;;5398186;26;19996;-82
2024/04/11 02:53:18;;;;;;;4.75;2.30;;;7.60;99.90;;;;;;5405052;26;20015;-83
2024/04/11 02:55:44;;;;;;;3.15;1.92;;;7.80;99.90;;;;;;5405141;26;19999;-82
2024/04/11 02:58:10;;;;;;;7.50;1.80;;;7.50;99.90;;;;;;5386902;26;20073;-82
2024/04/11 03:00:36;;;;;;;3.22;1.85;;;7.40;99.90;;;;;;5391284;26;20015;-83
2024/04/11 03:03:02;;;;;;;7.32;2.55;;;7.30;99.90;;;;;;5395997;26;20014;-82
2024/04/11 03:05:27;;;;;;;5.70;1.70;;;7.30;99.90;;;;;;5392850;26;19999;-82
2024/04/11 03:07:53;;;;;;;9.25;2.20;;;7.20;99.90;;;;;;5382096;26;19996;-83
2024/04/11 03:10:18;;;;;;;3.80;1.80;;;7.40;99.90;;;;;;5387425;26;20008;-84
2024/04/11 03:12:44;;;;;;;3.33;1.70;;;7.40;99.90;;;;;;5394800;26;20004;-83
2024/04/11 03:15:09;;;;;;;10.52;2.25;;;7.30;99.90;;;;;;5406631;26;19999;-83
2024/04/11 03:17:38;;;;;;;5.38;2.35;;;7.20;99.90;;;;;;5387519;26;20004;-83
2024/04/11 03:20:04;;;;;;;5.47;2.33;;;7.30;99.90;;;;;;5405285;26;20466;-84
2024/04/11 03:22:30;;;;;;;5.30;2.08;;;7.20;99.90;;;;;;5407862;26;20003;-82
2024/04/11 03:24:56;;;;;;;7.60;2.15;;;7.30;99.90;;;;;;5398392;26;20000;-83
2024/04/11 03:27:22;;;;;;;3.85;1.83;;;7.30;99.90;;;;;;5401826;26;20000;-83
2024/04/11 03:29:48;;;;;;;6.97;1.90;;;7.40;99.90;;;;;;5384113;26;20459;-84
2024/04/11 03:32:13;;;;;;;5.05;2.05;;;7.50;99.90;;;;;;5397945;26;20052;-83
2024/04/11 03:34:40;;;;;;;6.38;2.30;;;7.50;99.90;;;;;;5398423;26;20000;-83
2024/04/11 03:37:06;;;;;;;8.68;2.55;;;7.30;99.90;;;;;;5394010;26;20082;-84
2024/04/11 03:39:31;;;;;;;4.70;2.35;;;7.30;99.90;;;;;;5385814;26;20457;-82
2024/04/11 03:41:57;;;;;;;8.52;2.45;;;7.30;99.90;;;;;;5384722;26;20000;-83
2024/04/11 03:44:23;;;;;;;4.00;2.20;;;7.20;99.90;;;;;;5402924;26;20015;-84
2024/04/11 03:46:48;;;;;;;6.75;2.15;;;7.20;99.90;;;;;;5396197;26;20077;-83
2024/04/11 03:49:14;;;;;;;9.05;2.50;;;7.00;99.90;;;;;;5406782;26;20007;-83
2024/04/11 03:51:41;;;;;;;5.80;2.45;;;7.30;99.90;;;;;;5401480;26;20077;-84
2024/04/11 03:54:09;;;;;;;5.80;2.05;;;7.20;99.90;;;;;;5394079;26;20021;-83
2024/04/11 03:56:34;;;;;;;5.68;2.60;;;7.20;99.90;;;;;;5397630;26;20008;-83
2024/04/11 03:59:01;;;;;;;5.63;2.17;;;7.30;99.90;;;;;;5394852;26;20011;-83
2024/04/11 04:01:27;;;;;;;5.80;1.98;;;7.30;99.90;;;;;;5385636;26;20000;-83
2024/04/11 04:04:02;;;;;;;6.85;2.55;;;7.40;99.90;;;;;;5405434;26;20015;-83
2024/04/11 04:06:30;;;;;;;7.32;2.30;;;7.30;99.90;;;;;;5393119;26;20000;-83
2024/04/11 04:08:55;;;;;;;7.57;2.75;;;7.20;99.90;;;;;;5392438;26;20359;-82
2024/04/11 04:11:21;;;;;;;4.88;2.30;;;7.20;99.90;;;;;;5384083;26;20015;-83
2024/04/11 04:13:53;;;;;;;6.75;2.15;;;7.20;99.90;;;;;;5388454;26;20030;-83
2024/04/11 04:16:19;;;;;;;10.20;3.15;;;7.30;99.90;;;;;;5398342;26;20014;-83
2024/04/11 04:18:46;;;;;;;7.80;2.70;;;7.10;99.90;;;;;;5400668;26;20003;-84
2024/04/11 04:21:13;;;;;;;5.53;2.33;;;7.20;99.90;;;;;;5396049;26;20018;-83
2024/04/11 04:23:43;;;;;;;4.60;1.98;;;6.90;99.90;;;;;;5389222;26;20016;-83
2024/04/11 04:26:10;;;;;;;6.50;2.42;;;7.10;99.90;;;;;;5386954;26;20462;-84
2024/04/11 04:28:38;;;;;;;3.55;1.92;;;6.90;99.90;;;;;;5397150;26;20000;-83
2024/04/11 04:31:17;;;;;;;11.70;2.95;;;6.80;99.90;;;;;;5391550;26;20007;-83
2024/04/11 04:33:47;;;;;;;8.27;3.63;;;7.00;99.90;;;;;;5396908;26;20485;-84
2024/04/11 04:36:15;;;;;;;9.80;3.17;;;6.90;99.90;;;;;;5387179;26;20003;-82
2024/04/11 04:38:49;;;;;;;9.10;3.47;;;7.10;99.90;;;;;;5401652;26;20011;-82
2024/04/11 04:41:16;;;;;;;8.38;3.00;;;6.90;99.90;;;;;;5403116;26;20015;-83
2024/04/11 04:43:44;;;;;;;7.93;2.50;;;6.90;99.90;;;;;;5384122;26;20077;-82
2024/04/11 04:46:11;;;;;;;8.45;2.60;;;6.80;99.90;;;;;;5392633;26;20069;-83
2024/04/11 04:48:37;;;;;;;7.90;2.70;;;6.90;99.90;;;;;;5402787;26;20004;-83
2024/04/11 04:51:04;;;;;;;7.63;2.38;;;6.90;99.90;;;;;;5402024;26;20017;-84
2024/04/11 04:53:30;;;;;;;18.10;2.83;;;6.90;99.90;;;;;;5401289;26;20018;-82
2024/04/11 04:55:56;;;;;;;9.82;3.28;;;7.10;99.90;;;;;;5391483;26;20000;-83
2024/04/11 04:58:22;;;;;;;10.00;3.70;;;7.20;99.90;;;;;;5403321;26;20000;-83
2024/04/11 05:00:47;;;;;;;14.43;4.00;;;7.20;99.90;;;;;;5401162;26;20003;-83
2024/04/11 05:03:14;;;;;;;9.05;3.40;;;7.10;99.90;;;;;;5404181;26;19996;-83
2024/04/11 05:05:41;;;;;;;6.38;3.08;;;7.10;99.90;;;;;;5390636;26;20000;-83
2024/04/11 05:08:07;;;;;;;7.25;3.08;;;7.20;99.90;;;;;;5385294;26;20001;-83
2024/04/11 05:10:42;;;;;;;8.55;3.22;;;7.30;99.90;;;;;;5401346;26;20004;-83
2024/04/11 05:13:12;;;;;;;5.90;2.88;;;7.20;99.90;;;;;;5394191;26;20008;-84
2024/04/11 05:15:38;;;;;;;13.70;3.97;;;7.10;99.90;;;;;;5398061;26;20159;-84
2024/04/11 05:18:04;;;;;;;9.68;3.42;;;7.00;99.90;;;;;;5397485;26;20010;-82
2024/04/11 05:20:33;;;;;;;10.73;3.10;;;7.20;99.90;;;;;;5394379;26;20049;-83
2024/04/11 05:22:59;;;;;;;13.32;3.38;;;7.20;99.90;;;;;;5399187;26;20037;-83
2024/04/11 05:25:24;;;;;;;5.45;3.08;;;7.50;99.90;;;;;;5395583;26;20007;-83
2024/04/11 05:27:52;;;;;;;15.10;3.78;;;7.60;99.90;;;;;;5390361;26;20000;-83
2024/04/11 05:30:19;;;;;;;7.47;2.92;;;7.50;99.90;;;;;;5398293;26;20070;-82
2024/04/11 05:32:46;;;;;;;10.48;3.20;;;7.60;99.90;;;;;;5395847;26;20007;-83
2024/04/11 05:35:12;;;;;;;16.85;3.25;;;7.60;99.90;;;;;;5393973;26;20019;-83
2024/04/11 05:37:45;;;;;;;21.48;3.60;;;7.80;99.90;;;;;;5386570;26;20000;-83
2024/04/11 05:40:12;;;;;;;9.30;3.13;;;7.80;99.90;;;;;;5397318;26;20014;-83
2024/04/11 05:42:44;;;;;;;11.20;2.85;;;8.00;99.90;;;;;;5401321;26;20065;-83
2024/04/11 05:45:19;;;;;;;7.15;3.08;;;7.80;99.90;;;;;;5402680;26;20013;-83
2024/04/11 05:47:48;;;;;;;11.82;3.05;;;7.80;99.90;;;;;;5403683;26;20011;-82
2024/04/11 05:50:17;;;;;;;6.68;3.22;;;8.00;99.90;;;;;;5394884;26;20047;-83
2024/04/11 05:52:43;;;;;;;5.95;3.35;;;8.10;99.90;;;;;;5404070;26;20347;-83
2024/04/11 05:55:10;;;;;;;6.78;2.80;;;7.90;99.90;;;;;;5408181;26;19995;-83
2024/04/11 05:57:37;;;;;;;10.68;2.75;;;8.20;99.90;;;;;;5405071;26;20068;-83
2024/04/11 06:00:03;;;;;;;7.30;3.17;;;8.10;99.90;;;;;;5394527;26;20016;-83
2024/04/11 06:02:34;;;;;;;5.75;2.75;;;8.00;99.90;;;;;;5394000;26;20107;-82
2024/04/11 06:05:01;;;;;;;;;;;8.00;99.90;;;;;;5403400;26;20004;-82
2024/04/11 06:07:29;;;;;;;6.95;2.80;;;8.00;99.90;;;;;;5400348;26;19939;-82
2024/04/11 06:09:58;;;;;;;10.75;3.30;;;8.50;99.90;;;;;;5399597;26;20004;-84
2024/04/11 06:12:23;;;;;;;9.35;3.63;;;8.40;99.90;;;;;;5394455;26;20028;-83
2024/04/11 06:14:49;;;;;;;10.50;3.20;;;8.30;99.90;;;;;;5406253;26;20473;-83
2024/04/11 06:17:15;;;;;;;5.07;2.78;;;8.50;99.90;;;;;;5398194;26;20015;-83
2024/04/11 06:19:40;;;;;;;7.25;3.25;;;8.60;99.90;;;;;;5396810;26;20001;-84
2024/04/11 06:22:06;;;;;;;4.45;3.00;;;8.20;99.90;;;;;;5388434;26;20498;-83
2024/04/11 06:24:35;;;;;;;8.43;3.30;;;8.20;99.90;;;;;;5407476;26;20011;-83
2024/04/11 06:27:02;;;;;;;12.65;3.67;;;8.40;99.90;;;;;;5401076;26;19999;-82
2024/04/11 06:29:27;;;;;;;9.48;3.45;;;8.30;99.90;;;;;;5393172;26;19999;-83
2024/04/11 06:31:53;;;;;;;15.85;3.47;;;8.40;99.90;;;;;;5385125;26;20494;-83
2024/04/11 06:34:19;;;;;;;13.90;3.65;;;8.60;99.90;;;;;;5401741;26;20472;-83
2024/04/11 06:36:49;;;;;;;18.25;3.25;;;8.70;99.90;;;;;;5402735;26;20027;-83
2024/04/11 06:39:17;;;;;;;9.33;3.20;;;8.90;99.90;;;;;;5401187;26;20035;-83
2024/04/11 06:41:43;;;;;;;10.73;3.30;;;8.90;99.90;;;;;;5401647;26;20021;-84
2024/04/11 06:44:10;;;;;;;9.55;2.97;;;9.00;99.90;;;;;;5402632;26;20473;-83
2024/04/11 06:46:37;;;;;;;12.80;3.50;;;9.10;99.90;;;;;;5401363;26;19995;-82
2024/04/11 06:49:02;;;;;;;6.03;3.25;;;9.00;99.90;;;;;;5401662;26;20022;-82
2024/04/11 06:51:30;;;;;;;13.57;4.35;;;9.10;99.90;;;;;;5401561;26;19999;-84
2024/04/11 06:53:57;;;;;;;13.48;3.72;;;9.40;99.90;;;;;;5392970;26;19999;-83
2024/04/11 06:56:24;;;;;;;6.85;2.90;;;9.30;99.90;;;;;;5394181;26;20007;-84
2024/04/11 06:58:50;;;;;;;9.05;3.70;;;9.20;99.90;;;;;;5401093;26;20012;-83
2024/04/11 07:01:16;;;;;;;10.75;3.58;;;9.20;99.90;;;;;;5404199;26;19996;-83
2024/04/11 07:03:49;;;;;;;10.57;3.75;;;9.50;99.90;;;;;;5384647;26;20001;-83
2024/04/11 07:06:21;;;;;;;18.10;3.35;;;9.50;99.90;;;;;;5402488;26;20006;-83
2024/04/11 07:08:48;;;;;;;17.48;4.38;;;9.60;99.90;;;;;;5398864;26;20062;-84
2024/04/11 07:11:20;;;;;;;6.30;3.25;;;9.80;99.90;;;;;;5398784;26;20000;-83
2024/04/11 07:13:46;;;;;;;9.73;3.40;;;10.00;99.90;;;;;;5403828;26;20014;-83
2024/04/11 07:16:16;;;;;;;10.15;3.30;;;10.00;99.90;;;;;;5391619;26;20000;-83
2024/04/11 07:18:44;;;;;;;11.45;3.45;;;10.00;99.90;;;;;;5396923;26;20000;-83
2024/04/11 07:21:13;;;;;;;20.92;4.18;;;10.20;99.90;;;;;;5398419;26;20415;-83
2024/04/11 07:23:42;;;;;;;10.23;3.65;;;10.30;99.90;;;;;;5405466;26;20012;-84
2024/04/11 07:26:11;;;;;;;12.25;3.60;;;10.40;99.90;;;;;;5405078;26;20000;-84
2024/04/11 07:28:39;;;;;;;10.13;3.15;;;10.50;99.90;;;;;;5438667;21;20004;-75
2024/04/11 07:31:06;;;;;;;11.38;3.70;;;10.50;99.90;;;;;;5399548;26;20011;-76
2024/04/11 07:33:32;;;;;;;14.98;3.78;;;10.60;99.90;;;;;;5403731;26;20011;-75
2024/04/11 07:35:58;;;;;;;9.20;3.85;;;10.60;99.90;;;;;;5397784;26;20003;-75
2024/04/11 07:38:26;;;;;;;12.05;3.95;;;10.70;99.90;;;;;;5403487;26;20030;-75
2024/04/11 07:40:58;;;;;;;10.27;3.40;;;10.80;99.90;;;;;;5430672;26;20007;-75
2024/04/11 07:43:26;;;;;;;10.95;3.38;;;10.90;99.90;;;;;;5394527;26;20000;-77
2024/04/11 07:45:52;;;;;;;4.28;2.72;;;11.00;99.90;;;;;;5407994;26;20070;-77
2024/04/11 07:48:23;;;;;;;9.45;2.88;;;11.10;99.90;;;;;;5392765;26;19997;-78
2024/04/11 07:50:50;;;;;;;15.88;2.95;;;11.30;99.90;;;;;;5429235;26;20006;-78
2024/04/11 07:53:16;;;;;;;6.45;2.80;;;11.40;99.90;;;;;;5397591;26;20723;-77
2024/04/11 07:55:49;;;;;;;9.77;2.92;;;11.50;99.90;;;;;;5394250;26;20046;-78
2024/04/11 07:58:18;;;;;;;8.30;3.38;;;11.70;99.90;;;;;;5403768;26;20064;-77
2024/04/11 08:00:54;;;;;;;10.45;3.72;;;11.90;99.90;;;;;;5410409;26;20457;-77
2024/04/11 08:03:20;;;;;;;12.50;3.80;;;12.00;99.90;;;;;;5404857;26;19999;-77
2024/04/11 08:05:49;;;;;;;10.07;4.15;;;12.30;99.90;;;;;;5397341;26;20019;-77
2024/04/11 08:08:19;;;;;;;9.30;3.22;;;12.40;99.90;;;;;;5392220;26;20329;-77
2024/04/11 08:10:49;;;;;;;9.05;4.05;;;12.60;99.90;;;;;;5402415;26;20003;-77
2024/04/11 08:13:18;;;;;;;14.73;4.65;;;12.70;99.90;;;;;;5405712;26;20048;-77
2024/04/11 08:15:44;;;;;;;9.32;3.78;;;12.90;99.90;;;;;;5407985;26;20015;-77
2024/04/11 08:18:11;;;;;;;9.02;3.65;;;12.80;99.90;;;;;;5399947;26;20476;-77
2024/04/11 08:20:36;;;;;;;6.47;3.38;;;12.70;99.90;;;;;;5394804;26;20007;-77
2024/04/11 08:23:04;;;;;;;7.15;3.00;;;13.00;99.90;;;;;;5408210;26;20026;-77
2024/04/11 08:25:29;;;;;;;6.00;3.35;;;13.20;99.90;;;;;;5404385;26;20132;-78
2024/04/11 08:27:56;;;;;;;11.75;4.07;;;13.40;99.90;;;;;;5404621;26;19996;-77
2024/04/11 08:30:22;;;;;;;12.40;4.30;;;13.40;99.90;;;;;;5398959;26;20000;-77
2024/04/11 08:32:47;;;;;;;14.13;4.00;;;13.40;99.90;;;;;;5408647;26;20666;-76
2024/04/11 08:35:17;;;;;;;11.85;4.38;;;13.40;99.90;;;;;;5405169;26;20000;-78
2024/04/11 08:37:52;;;;;;;8.13;4.15;;;13.70;99.90;;;;;;5426222;26;20038;-78
2024/04/11 08:40:20;;;;;;;7.20;4.20;;;13.60;99.90;;;;;;5393932;26;20015;-78
2024/04/11 08:42:49;;;;;;;15.52;5.00;;;13.80;99.90;;;;;;5401484;26;20137;-77
2024/04/11 08:45:16;;;;;;;7.10;4.23;;;13.90;99.90;;;;;;5406450;26;20064;-77
2024/04/11 08:47:42;;;;;;;12.23;5.05;;;13.90;99.90;;;;;;5401204;26;20344;-77
2024/04/11 08:50:07;;;;;;;13.27;5.65;;;13.90;99.90;;;;;;5392790;26;20016;-78
2024/04/11 08:52:36;;;;;;;14.55;5.75;;;13.90;99.90;;;;;;5398459;26;20004;-78
2024/04/11 08:55:01;;;;;;;8.30;4.28;;;14.10;99.90;;;;;;5407132;26;20000;-78
2024/04/11 08:57:30;;;;;;;8.00;4.43;;;14.00;99.90;;;;;;5406322;26;20058;-78
2024/04/11 08:59:56;;;;;;;8.63;4.93;;;14.20;99.90;;;;;;5403360;26;20014;-78
2024/04/11 09:02:22;;;;;;;10.48;4.72;;;14.30;99.90;;;;;;5408573;26;20761;-78
2024/04/11 09:04:48;;;;;;;7.05;4.85;;;14.40;99.90;;;;;;5407313;26;20004;-79
2024/04/11 09:07:22;;;;;;;11.57;5.57;;;14.60;99.90;;;;;;5406125;26;20010;-78
2024/04/11 09:09:48;;;;;;;10.02;4.47;;;14.70;99.90;;;;;;5395687;26;20007;-78
2024/04/11 09:12:16;;;;;;;7.70;4.07;;;14.90;99.90;;;;;;5396178;26;20708;-78
2024/04/11 09:14:43;;;;;;;8.63;4.07;;;14.60;99.90;;;;;;5397249;26;20451;-78
2024/04/11 09:17:13;;;;;;;8.82;4.00;;;14.80;99.90;;;;;;5405785;26;20452;-79
2024/04/11 09:19:40;;;;;;;;;;;14.80;99.90;;;;;;5406847;26;20008;-78
2024/04/11 09:22:11;;;;;;;6.82;3.60;;;14.90;99.90;;;;;;5397101;26;19926;-79
2024/04/11 09:24:38;;;;;;;7.28;3.58;;;15.10;99.90;;;;;;5400910;26;20035;-79
2024/04/11 09:27:05;;;;;;;7.45;3.53;;;15.10;99.90;;;;;;5402243;26;20015;-79
2024/04/11 09:29:35;;;;;;;16.90;3.63;;;15.30;99.90;;;;;;5405265;26;20011;-79
2024/04/11 09:32:03;;;;;;;7.80;3.92;;;15.30;99.90;;;;;;5400283;26;20397;-78
2024/04/11 09:34:32;;;;;;;7.45;3.45;;;15.40;99.90;;;;;;5390709;26;20042;-78
2024/04/11 09:36:59;;;;;;;9.57;3.43;;;15.30;99.90;;;;;;5402692;26;20015;-79
2024/04/11 09:39:45;;;;;;;6.30;3.20;;;15.50;99.90;;;;;;5403177;26;19996;-78
2024/04/11 09:42:12;;;;;;;4.68;3.00;;;15.50;99.90;;;;;;5402333;26;19999;-78
2024/04/11 09:44:50;;;;;;;6.55;2.95;;;15.20;99.90;;;;;;5393028;26;20004;-79
2024/04/11 09:47:20;;;;;;;7.88;3.38;;;15.40;99.90;;;;;;5402771;26;19999;-78
2024/04/11 09:50:04;;;;;;;10.57;2.80;;;15.50;99.90;;;;;;5404059;26;20012;-78
2024/04/11 09:52:34;;;;;;;9.77;3.00;;;15.70;99.90;;;;;;5409093;26;20476;-78
2024/04/11 09:55:03;;;;;;;5.57;2.72;;;15.80;99.90;;;;;;5399997;26;20345;-77
2024/04/11 09:57:33;;;;;;;10.15;3.13;;;15.90;99.90;;;;;;5397386;26;20388;-78
2024/04/11 10:00:07;;;;;;;9.20;3.25;;;16.00;99.90;;;;;;5395338;26;20001;-78
2024/04/11 10:02:35;;;;;;;10.57;3.22;;;15.60;99.90;;;;;;5401159;26;20030;-78
2024/04/11 10:05:05;;;;;;;5.90;3.00;;;15.60;99.90;;;;;;5392473;26;20011;-78
2024/04/11 10:07:33;;;;;;;;;;;15.70;99.90;;;;;;5400305;26;20000;-77
2024/04/11 10:10:05;;;;;;;7.53;2.92;;;16.00;99.90;;;;;;5406743;26;20278;-79
2024/04/11 10:12:38;;;;;;;6.63;3.13;;;16.10;99.90;;;;;;5400511;26;20476;-78
2024/04/11 10:15:18;;;;;;;6.30;2.95;;;15.70;99.00;;;;;;5397463;26;20007;-78
2024/04/11 10:17:48;;;;;;;9.05;3.42;;;15.60;99.80;;;;;;5399754;26;20000;-78
2024/04/11 10:20:13;;;;;;;10.63;2.95;;;15.70;99.30;;;;;;5405612;26;20011;-77
2024/04/11 10:22:47;;;;;;;5.72;2.45;;;15.90;99.90;;;;;;5431736;26;20073;-78
2024/04/11 10:25:18;;;;;;;7.20;2.70;;;16.10;99.90;;;;;;5405616;26;20000;-78
2024/04/11 10:27:47;;;;;;;4.88;2.80;;;16.20;99.90;;;;;;5395810;26;20016;-78
2024/04/11 10:30:17;;;;;;;6.57;3.30;;;16.10;99.90;;;;;;5426374;26;20019;-78
2024/04/11 10:32:46;;;;;;;6.03;3.08;;;15.80;98.70;;;;;;5402086;26;20004;-78
2024/04/11 10:35:14;;;;;;;7.43;2.60;;;15.70;98.90;;;;;;5396706;26;20244;-78
2024/04/11 10:37:40;;;;;;;7.65;2.83;;;15.70;99.60;;;;;;5385669;26;20012;-78
2024/04/11 10:40:10;;;;;;;3.92;2.97;;;15.80;99.70;;;;;;5397236;26;19995;-78
2024/04/11 10:42:36;;;;;;;8.38;2.65;;;15.80;99.90;;;;;;5402653;26;20077;-78
2024/04/11 10:45:07;;;;;;;5.47;2.72;;;15.90;99.90;;;;;;5401055;26;20011;-78
2024/04/11 10:47:35;;;;;;;8.38;2.33;;;15.90;99.90;;;;;;5425490;26;20016;-78
2024/04/11 10:50:09;;;;;;;8.95;2.83;;;16.20;99.90;;;;;;5404158;26;20011;-78
2024/04/11 10:52:38;;;;;;;13.00;2.30;;;16.10;99.90;;;;;;5399405;26;20004;-78
2024/04/11 10:55:12;;;;;;;4.17;2.20;;;16.00;99.90;;;;;;5402798;26;20007;-78
2024/04/11 10:57:44;;;;;;;6.45;2.60;;;16.10;99.90;;;;;;5398356;26;20020;-79
2024/04/11 11:00:11;;;;;;;6.15;2.70;;;16.00;99.90;;;;;;5390052;26;20011;-78
2024/04/11 11:02:42;;;;;;;5.13;2.50;;;15.90;98.90;;;;;;5395434;26;20484;-78
2024/04/11 11:05:08;;;;;;;8.57;2.67;;;15.90;99.50;;;;;;5400216;26;20000;-78
2024/04/11 11:07:35;;;;;;;5.65;2.65;;;16.00;99.90;;;;;;5395418;26;20043;-78
2024/04/11 11:10:11;;;;;;;6.70;2.70;;;16.00;99.90;;;;;;5395525;26;20031;-79
2024/04/11 11:12:37;;;;;;;4.72;2.67;;;16.00;99.70;;;;;;5432608;26;20000;-79
2024/04/11 11:15:03;;;;;;;4.38;2.33;;;16.00;99.00;;;;;;5429583;26;20465;-78
2024/04/11 11:17:31;;;;;;;7.00;2.92;;;16.10;99.90;;;;;;5432828;26;20011;-79
2024/04/11 11:19:58;;;;;;;11.82;2.35;;;16.10;98.90;;;;;;5404163;26;20057;-79
2024/04/11 11:22:33;;;;;;;3.58;2.47;;;16.20;98.60;;;;;;5404212;26;20080;-79
2024/04/11 11:25:00;;;;;;;5.32;2.83;;;16.40;99.50;;;;;;5404873;26;20068;-79
2024/04/11 11:27:31;;;;;;;7.90;2.33;;;16.40;98.90;;;;;;5402740;26;20036;-78
2024/04/11 11:29:57;;;;;;;3.80;2.65;;;16.60;99.90;;;;;;5396845;26;20357;-79
2024/04/11 11:32:25;;;;;;;5.13;2.22;;;16.70;99.90;;;;;;5395361;26;19996;-78
2024/04/11 11:34:52;;;;;;;3.95;2.30;;;16.60;99.90;;;;;;5402125;26;20008;-79
2024/04/11 11:37:21;;;;;;;6.50;2.13;;;16.60;99.20;;;;;;5405462;26;19999;-79
2024/04/11 11:39:55;;;;;;;4.13;2.40;;;16.70;99.20;;;;;;5403256;26;20043;-79
2024/04/11 11:42:26;;;;;;;3.58;1.85;;;16.60;98.80;;;;;;5398938;26;20027;-78
2024/04/11 11:47:35;;;;;;;3.53;2.00;;;17.00;98.50;;;;;;5407421;26;20035;-78
2024/04/11 11:50:07;;;;;;;7.97;2.88;;;16.90;98.20;;;;;;5409666;26;20014;-79
2024/04/11 11:52:37;;;;;;;9.68;2.45;;;16.70;98.10;;;;;;5400328;26;20004;-80
2024/04/11 11:55:03;;;;;;;4.03;2.47;;;16.80;98.80;;;;;;5396734;26;20004;-79
2024/04/11 11:57:39;;;;;;;3.38;2.00;;;16.70;97.80;;;;;;5407093;26;20014;-81
2024/04/11 12:00:18;;;;;;;6.30;2.90;;;16.70;97.80;;;;;;5426971;26;20480;-81
2024/04/11 12:02:50;;;;;;;6.18;2.25;;;16.90;98.30;;;;;;5387044;26;20019;-80
2024/04/11 12:05:27;;;;;;;8.00;2.13;;;17.00;99.60;;;;;;5399658;26;20076;-81
2024/04/11 12:08:06;;;;;;;7.00;2.33;;;16.90;99.90;;;;;;5405288;26;19996;-81
2024/04/11 12:13:38;;;;;;;5.15;2.63;;;16.90;99.70;;;;;;5403730;26;20076;-82
2024/04/11 12:16:04;;;;;;;5.32;2.03;;;16.70;98.90;;;;;;5406251;26;20027;-80
2024/04/11 12:18:30;;;;;;;4.88;2.30;;;16.70;99.90;;;;;;5406997;26;19996;-80
2024/04/11 12:20:59;;;;;;;8.98;2.70;;;16.60;99.90;;;;;;5406484;26;20035;-80
2024/04/11 12:23:28;;;;;;;5.80;2.67;;;16.50;99.30;;;;;;5401807;26;20036;-80
2024/04/11 12:26:00;;;;;;;5.75;2.92;;;16.40;99.90;;;;;;5393752;26;20004;-80
2024/04/11 12:28:26;;;;;;;3.63;2.65;;;16.20;99.50;;;;;;5402992;26;20015;-81
2024/04/11 12:30:59;;;;;;;6.88;2.63;;;16.10;99.70;;;;;;5401958;26;20457;-80
2024/04/11 12:33:31;;;;;;;2.85;2.28;;;16.10;99.90;;;;;;5394154;26;20000;-80
2024/04/11 12:35:59;;;;;;;2.60;2.13;;;16.10;99.70;;;;;;5392547;26;20694;-80
2024/04/11 12:38:29;;;;;;;5.15;2.17;;;16.10;99.90;;;;;;5409128;26;19996;-80
2024/04/11 12:40:59;;;;;;;5.28;2.42;;;16.10;99.90;;;;;;5404591;26;20019;-80
2024/04/11 12:43:28;;;;;;;3.40;2.13;;;16.00;99.80;;;;;;5438412;26;20023;-81
2024/04/11 12:45:55;;;;;;;5.20;2.33;;;16.10;99.70;;;;;;5434489;26;20138;-80
2024/04/11 12:48:23;;;;;;;4.32;2.03;;;16.10;99.90;;;;;;5399916;26;20081;-81
2024/04/11 12:50:50;;;;;;;5.70;2.13;;;16.10;99.90;;;;;;5398519;26;20379;-80
2024/04/11 12:53:24;;;;;;;4.10;1.92;;;16.10;99.90;;;;;;5406489;26;20010;-80
2024/04/11 12:55:55;;;;;;;5.68;1.88;;;15.90;99.60;;;;;;5395238;26;20053;-80
2024/04/11 12:58:28;;;;;;;6.78;2.28;;;16.00;99.90;;;;;;5399615;26;20011;-80
2024/04/11 13:00:58;;;;;;;6.20;2.40;;;16.00;99.50;;;;;;5405028;26;20053;-80
2024/04/11 13:06:22;;;;;;;5.35;1.95;;;15.70;99.90;;;;;;5398956;26;20019;-81